Cheadle, United Kingdom
Current Conditions -  °F | °C
As of 7:50 AM on Wednesday 26 Nov 2014 (Local Time) from EGCC Reporting Station
Light Rain Light Rain  
Wind Chill: 40°   Ceiling: 2200
Heat Index: 43°   Visibility: 2.8mi
Dew Point: 43°   Wind: 5mph
Humidity: 100%   Direction: 10°N
Pressure: 29.94"   Gusts: NA
Location:  53.39°N, 2.22°W
Report Text: EGCC 260750Z 01004KT 4500 -RADZ SCT017 BKN022 06/06 Q1014 TEMPO 6000
Loading
Personal Weather Stations






























Interactive Weather Map New forecast layout! Learn more

10-Day Weather Forecast

Advertisements
Track Severe Weather on mobile